createdAt,value
2018-07-20T00:00:55.060Z,23.12
2018-07-20T00:02:47.147Z,23.09
2018-07-20T00:04:38.205Z,23.15
2018-07-20T00:05:21.952Z,23.16
2018-07-20T00:07:37.053Z,23.15
2018-07-20T00:09:35.936Z,23.04
2018-07-20T00:10:36.819Z,22.89
2018-07-20T00:14:15.521Z,22.85
2018-07-20T00:16:45.524Z,22.91
2018-07-20T00:17:38.155Z,22.76
2018-07-20T00:20:03.594Z,22.78
2018-07-20T00:23:02.665Z,22.61
2018-07-20T00:24:57.127Z,22.69
2018-07-20T00:25:57.014Z,22.61
2018-07-20T00:27:49.933Z,22.69
2018-07-20T00:30:09.303Z,22.61
2018-07-20T00:32:33.052Z,22.6
2018-07-20T00:37:17.572Z,22.52
2018-07-20T00:39:41.119Z,22.51
2018-07-20T00:41:32.780Z,22.44
2018-07-20T00:42:33.466Z,22.45
2018-07-20T00:44:57.767Z,22.44
2018-07-20T00:48:26.373Z,22.35
2018-07-20T00:50:57.931Z,22.27
2018-07-20T00:53:20.210Z,22.17
2018-07-20T00:55:41.924Z,22.02
2018-07-20T00:58:07.821Z,22.05
2018-07-20T01:00:29.913Z,22.12
2018-07-20T01:02:11.294Z,22.09
2018-07-20T01:04:02.509Z,22.14
2018-07-20T01:05:54.771Z,22.12
2018-07-20T01:08:14.881Z,22.11
2018-07-20T01:10:05.802Z,22.09
2018-07-20T01:12:27.985Z,22.14
2018-07-20T01:14:47.868Z,22.12
2018-07-20T01:16:54.596Z,22.05
2018-07-20T01:19:15.513Z,22.15
2018-07-20T01:20:57.139Z,22.12
2018-07-20T01:23:22.429Z,22.09
2018-07-20T01:25:15.033Z,22.09
2018-07-20T01:27:06.895Z,22.11
2018-07-20T01:28:59.670Z,22.11
2018-07-20T01:33:27.477Z,21.89
2018-07-20T01:35:11.697Z,21.82
2018-07-20T01:37:42.618Z,21.81
2018-07-20T01:40:07.390Z,21.67
2018-07-20T01:42:35.486Z,21.52
2018-07-20T01:45:05.475Z,21.37
2018-07-20T01:47:40.433Z,21.26
2018-07-20T01:48:41.460Z,21.12
2018-07-20T01:51:15.659Z,21
2018-07-20T01:56:58.405Z,20.97
2018-07-20T01:57:59.437Z,20.85
2018-07-20T01:58:48.193Z,20.78
2018-07-20T01:59:28.249Z,20.72
2018-07-20T02:00:08.675Z,20.72
2018-07-20T02:00:49.129Z,20.68
2018-07-20T02:03:06.803Z,20.41
2018-07-20T02:05:32.316Z,20.31
2018-07-20T02:07:55.259Z,20.44
2018-07-20T02:10:22.245Z,20.41
2018-07-20T02:13:55.482Z,20.27
2018-07-20T02:14:53.700Z,20.2
2018-07-20T02:15:50.907Z,20.1
2018-07-20T02:17:47.783Z,19.98
2018-07-20T02:20:26.389Z,19.97
2018-07-20T02:21:24.947Z,20
2018-07-20T02:22:25.256Z,19.87
2018-07-20T02:23:25.798Z,19.92
2018-07-20T02:24:23.497Z,19.94
2018-07-20T02:25:24.246Z,19.82
2018-07-20T02:26:29.171Z,19.82
2018-07-20T02:27:31.510Z,19.79
2018-07-20T02:28:33.895Z,19.82
2018-07-20T02:29:30.715Z,19.7
2018-07-20T02:30:25.507Z,19.72
2018-07-20T02:31:21.713Z,19.7
2018-07-20T02:33:15.965Z,19.71
2018-07-20T02:34:17.190Z,19.6
2018-07-20T02:35:17.990Z,19.7
2018-07-20T02:36:19.437Z,19.67
2018-07-20T02:39:54.939Z,19.87
2018-07-20T02:42:24.945Z,19.82
2018-07-20T02:43:29.566Z,19.83
2018-07-20T02:44:19.004Z,19.78
2018-07-20T02:46:04.020Z,19.85
2018-07-20T02:47:58.630Z,19.76
2018-07-20T02:49:00.365Z,19.8
2018-07-20T02:51:26.616Z,19.75
2018-07-20T02:52:24.444Z,19.78
2018-07-20T02:53:18.785Z,19.76
2018-07-20T02:54:17.573Z,19.8
2018-07-20T02:55:19.509Z,19.76
2018-07-20T02:56:17.442Z,19.79
2018-07-20T02:57:13.303Z,19.78
2018-07-20T02:58:08.912Z,19.76
2018-07-20T03:01:46.442Z,19.72
2018-07-20T03:04:18.623Z,19.8
2018-07-20T03:05:14.482Z,19.71
2018-07-20T03:06:09.535Z,19.72
2018-07-20T03:08:03.350Z,19.72
2018-07-20T03:08:58.788Z,19.78
2018-07-20T03:11:26.690Z,19.86
2018-07-20T03:12:25.879Z,19.8
2018-07-20T03:14:51.069Z,19.9
2018-07-20T03:15:43.779Z,19.86
2018-07-20T03:16:38.383Z,19.85
2018-07-20T03:17:30.755Z,20
2018-07-20T03:18:27.640Z,19.89
2018-07-20T03:19:14.034Z,19.92
2018-07-20T03:19:54.337Z,19.9
2018-07-20T03:21:46.379Z,19.87
2018-07-20T03:23:40.618Z,19.9
2018-07-20T03:26:03.461Z,19.98
2018-07-20T03:26:58.266Z,19.87
2018-07-20T03:28:55.737Z,19.95
2018-07-20T03:29:57.597Z,19.92
2018-07-20T03:52:24.772Z,19.62
2018-07-20T03:54:18.374Z,19.52
2018-07-20T03:58:51.326Z,19.16
2018-07-20T04:00:46.456Z,19.09
2018-07-20T04:02:32.666Z,19.06
2018-07-20T04:43:42.548Z,17.55
2018-07-20T04:44:32.343Z,17.55
2018-07-20T04:47:01.134Z,17.62
2018-07-20T04:48:28.956Z,17.73
2018-07-20T04:49:52.561Z,17.77
2018-07-20T04:51:17.046Z,17.91
2018-07-20T04:53:52.286Z,18.19
2018-07-20T04:55:19.704Z,18.41
2018-07-20T04:56:45.423Z,18.46
2018-07-20T04:58:55.965Z,18.74
2018-07-20T05:00:39.357Z,18.94
2018-07-20T05:03:18.156Z,19.4
2018-07-20T05:04:51.451Z,19.64
2018-07-20T05:06:17.757Z,19.78
2018-07-20T05:07:58.890Z,20.13
2018-07-20T05:09:22.621Z,20.3
2018-07-20T05:12:31.982Z,20.75
2018-07-20T05:13:21.080Z,20.87
2018-07-20T05:14:11.803Z,20.98
2018-07-20T05:16:33.675Z,21.27
2018-07-20T05:17:29.499Z,21.37
2018-07-20T05:18:21.204Z,21.38
2018-07-20T05:19:10.288Z,21.45
2018-07-20T05:20:02.092Z,21.56
2018-07-20T05:20:54.549Z,21.64
2018-07-20T05:21:43.118Z,21.7
2018-07-20T05:22:32.746Z,21.71
2018-07-20T05:23:21.645Z,21.85
2018-07-20T05:24:10.574Z,21.85
2018-07-20T05:24:59.989Z,21.96
2018-07-20T05:25:49.602Z,21.98
2018-07-20T05:26:38.513Z,22.08
2018-07-20T05:27:27.563Z,22.21
2018-07-20T05:31:55.230Z,22.35
2018-07-20T05:34:33.820Z,22.64
2018-07-20T05:36:05.316Z,22.89
2018-07-20T05:37:35.157Z,23.21
2018-07-20T05:39:05.254Z,23.35
2018-07-20T05:40:54.534Z,23.45
2018-07-20T05:43:19.299Z,23.68
2018-07-20T05:44:59.024Z,23.84
2018-07-20T05:48:48.905Z,24.19
2018-07-20T05:49:34.772Z,24.45
2018-07-20T05:50:15.073Z,24.56
2018-07-20T05:50:55.610Z,24.67
2018-07-20T05:51:36.081Z,24.86
2018-07-20T05:52:16.665Z,24.92
2018-07-20T05:52:57.169Z,25.08
2018-07-20T05:53:37.555Z,25.05
2018-07-20T05:54:18.024Z,25.26
2018-07-20T05:54:59.064Z,25.24
2018-07-20T05:55:39.679Z,25.22
2018-07-20T05:56:20.456Z,25.26
2018-07-20T05:57:01.741Z,25.26
2018-07-20T05:57:41.909Z,25.42
2018-07-20T05:58:23.470Z,25.36
2018-07-20T05:59:06.757Z,25.45
2018-07-20T05:59:47.062Z,25.44
2018-07-20T06:00:26.949Z,25.48
2018-07-20T06:01:07.382Z,25.6
2018-07-20T06:01:48.430Z,25.67
2018-07-20T06:02:29.394Z,25.76
2018-07-20T06:03:09.992Z,25.71
2018-07-20T06:03:50.377Z,25.91
2018-07-20T06:04:38.325Z,26.04
2018-07-20T06:05:17.596Z,26.13
2018-07-20T06:07:10.740Z,26.34
2018-07-20T06:07:56.215Z,26.36
2018-07-20T06:11:51.885Z,26.71
2018-07-20T06:18:22.970Z,27.31
2018-07-20T06:26:04.923Z,27.93
2018-07-20T06:30:54.955Z,28.61
2018-07-20T06:31:36.517Z,28.69
2018-07-20T06:32:17.009Z,28.87
2018-07-20T06:32:57.463Z,29.02
2018-07-20T06:33:37.887Z,29.05
2018-07-20T06:34:18.522Z,29.14
2018-07-20T06:35:00.154Z,29.32
2018-07-20T06:35:40.920Z,29.35
2018-07-20T06:36:21.311Z,29.39
2018-07-20T06:37:01.759Z,29.44
2018-07-20T06:37:42.176Z,29.49
2018-07-20T06:38:22.792Z,29.49
2018-07-20T06:39:03.201Z,29.52
2018-07-20T06:39:43.583Z,29.45
2018-07-20T06:40:24.047Z,29.6
2018-07-20T06:41:05.436Z,29.64
2018-07-20T06:41:45.070Z,29.57
2018-07-20T06:42:25.454Z,29.64
2018-07-20T06:43:05.876Z,29.79
2018-07-20T06:43:46.353Z,29.84
2018-07-20T06:44:26.744Z,29.88
2018-07-20T06:49:33.439Z,29.89
2018-07-20T07:13:50.936Z,30.45
2018-07-20T07:23:30.693Z,31.19
2018-07-20T07:24:11.124Z,31.23
2018-07-20T07:24:51.363Z,31.25
2018-07-20T07:25:31.787Z,31.34
2018-07-20T07:26:12.192Z,31.31
2018-07-20T07:26:52.631Z,31.37
2018-07-20T07:27:33.137Z,31.27
2018-07-20T07:28:13.527Z,31.31
2018-07-20T07:28:53.869Z,31.46
2018-07-20T07:29:34.423Z,31.56
2018-07-20T07:30:14.930Z,31.59
2018-07-20T07:30:55.257Z,31.64
2018-07-20T07:31:36.099Z,31.6
2018-07-20T07:32:17.456Z,31.65
2018-07-20T07:32:57.671Z,31.72
2018-07-20T07:33:38.396Z,31.76
2018-07-20T07:34:19.192Z,31.76
2018-07-20T07:34:59.536Z,31.87
2018-07-20T07:35:40.119Z,31.87
2018-07-20T07:36:21.431Z,31.85
2018-07-20T07:37:01.669Z,31.92
2018-07-20T07:37:48.259Z,32.03
2018-07-20T07:38:28.848Z,32.14
2018-07-20T07:39:09.317Z,32.17
2018-07-20T07:39:49.692Z,32.29
2018-07-20T07:40:30.345Z,32.31
2018-07-20T07:41:10.724Z,32.36
2018-07-20T07:41:52.243Z,32.54
2018-07-20T07:42:32.738Z,32.61
2018-07-20T07:43:13.123Z,32.76
2018-07-20T07:43:53.705Z,32.8
2018-07-20T07:44:34.206Z,32.88
2018-07-20T07:45:14.784Z,32.84
2018-07-20T07:45:58.471Z,32.88
2018-07-20T07:46:38.887Z,32.87
2018-07-20T07:47:19.407Z,32.87
2018-07-20T07:47:59.801Z,32.96
2018-07-20T07:48:40.213Z,32.96
2018-07-20T07:49:20.816Z,32.99
2018-07-20T07:50:01.165Z,32.99
2018-07-20T07:50:41.571Z,33.05
2018-07-20T07:51:22.723Z,33.09
2018-07-20T07:52:02.827Z,33.05
2018-07-20T07:52:43.673Z,33.07
2018-07-20T07:53:28.496Z,33.15
2018-07-20T07:54:12.123Z,33.24
2018-07-20T07:54:53.157Z,33.28
2018-07-20T07:55:34.826Z,33.44
2018-07-20T07:56:17.758Z,33.5
2018-07-20T07:57:01.138Z,33.62
2018-07-20T07:57:39.253Z,33.6
2018-07-20T07:58:19.771Z,33.77
2018-07-20T07:59:05.011Z,33.81
2018-07-20T07:59:45.448Z,33.89
2018-07-20T08:00:25.722Z,33.96
2018-07-20T08:01:06.468Z,34
2018-07-20T08:01:47.194Z,33.94
2018-07-20T08:02:30.892Z,34.03
2018-07-20T08:03:11.419Z,34.12
2018-07-20T08:03:51.814Z,34.09
2018-07-20T08:04:32.452Z,34.21
2018-07-20T08:05:13.690Z,34.42
2018-07-20T08:05:53.950Z,34.43
2018-07-20T08:06:34.374Z,34.52
2018-07-20T08:07:14.789Z,34.63
2018-07-20T08:07:55.246Z,34.58
2018-07-20T08:08:35.929Z,34.69
2018-07-20T08:53:25.428Z,35.65
2018-07-20T09:07:31.741Z,36.4
2018-07-20T09:08:11.048Z,36.52
2018-07-20T09:08:54.109Z,36.49
2018-07-20T09:09:36.192Z,36.52
2018-07-20T09:10:16.711Z,36.57
2018-07-20T09:10:57.330Z,36.72
2018-07-20T09:11:38.641Z,36.86
2018-07-20T09:12:32.778Z,36.93
2018-07-20T09:14:01.165Z,37.08
2018-07-20T09:14:41.617Z,37.16
2018-07-20T09:15:21.999Z,37.05
2018-07-20T09:16:02.486Z,36.99
2018-07-20T09:16:43.564Z,37.01
2018-07-20T09:29:59.219Z,37.5
2018-07-20T09:32:43.207Z,37.56
2018-07-20T09:34:47.731Z,37.39
2018-07-20T09:35:28.403Z,37.54
2018-07-20T09:36:08.929Z,37.66
2018-07-20T09:36:49.359Z,37.9
2018-07-20T09:37:31.858Z,37.97
2018-07-20T09:44:05.576Z,38.67
2018-07-20T09:44:45.695Z,38.65
2018-07-20T09:45:26.380Z,38.62
2018-07-20T09:46:07.118Z,38.56
2018-07-20T09:46:47.529Z,38.71
2018-07-20T09:47:29.210Z,38.74
2018-07-20T09:48:10.589Z,38.77
2018-07-20T09:48:51.178Z,38.98
2018-07-20T09:49:31.707Z,39.07
2018-07-20T09:50:11.967Z,39.1
2018-07-20T09:50:52.418Z,39.13
2018-07-20T09:51:32.828Z,39.27
2018-07-20T09:52:13.242Z,39.31
2018-07-20T09:52:54.723Z,39.35
2018-07-20T09:53:35.254Z,39.41
2018-07-20T09:54:16.126Z,39.54
2018-07-20T09:54:56.623Z,39.65
2018-07-20T09:55:38.123Z,39.61
2018-07-20T09:56:19.358Z,39.66
2018-07-20T09:56:59.713Z,39.69
2018-07-20T09:57:40.275Z,39.56
2018-07-20T09:58:21.322Z,39.47
2018-07-20T09:59:03.466Z,39.41
2018-07-20T10:02:27.199Z,39.12
2018-07-20T10:03:07.723Z,39.01
2018-07-20T10:03:48.123Z,38.92
2018-07-20T10:04:29.184Z,38.82
2018-07-20T10:47:10.347Z,37.9
2018-07-20T10:51:03.714Z,38.31
2018-07-20T10:51:45.535Z,38.36
2018-07-20T10:52:25.946Z,38.41
2018-07-20T10:53:08.070Z,38.49
2018-07-20T11:00:20.026Z,38.67
2018-07-20T11:05:27.466Z,39.05
2018-07-20T11:06:08.484Z,39.17
2018-07-20T11:06:50.665Z,39.02
2018-07-20T11:07:30.352Z,38.97
2018-07-20T11:08:10.850Z,39.13
2018-07-20T11:08:51.318Z,39.01
2018-07-20T11:09:33.646Z,39.05
2018-07-20T11:10:13.756Z,39.09
2018-07-20T11:10:54.239Z,39.12
2018-07-20T11:11:34.832Z,39.1
2018-07-20T11:12:16.319Z,39.02
2018-07-20T11:12:57.078Z,39.1
2018-07-20T11:13:37.883Z,39.14
2018-07-20T11:14:18.438Z,39.16
2018-07-20T11:14:58.940Z,39.22
2018-07-20T11:15:40.399Z,39.29
2018-07-20T11:16:21.309Z,39.19
2018-07-20T11:17:02.431Z,39.32
2018-07-20T11:17:45.565Z,39.28
2018-07-20T11:18:25.440Z,39.36
2018-07-20T11:19:06.201Z,39.47
2018-07-20T11:19:47.677Z,39.44
2018-07-20T11:20:28.167Z,39.57
2018-07-20T11:21:09.568Z,39.56
2018-07-20T11:21:50.731Z,39.63
2018-07-20T11:22:31.863Z,39.66
2018-07-20T11:23:11.695Z,39.76
2018-07-20T11:23:52.253Z,39.9
2018-07-20T11:24:32.798Z,39.87
2018-07-20T11:25:13.425Z,39.76
2018-07-20T11:27:09.446Z,39.16
2018-07-20T11:29:14.033Z,39.12
2018-07-20T11:30:00.549Z,39.12
2018-07-20T11:30:40.703Z,39.1
2018-07-20T11:31:21.149Z,39.1
2018-07-20T11:32:01.576Z,39.14
2018-07-20T11:32:42.043Z,39.22
2018-07-20T11:33:24.015Z,39.16
2018-07-20T11:34:05.467Z,39.34
2018-07-20T11:34:45.806Z,39.36
2018-07-20T11:35:26.178Z,39.43
2018-07-20T11:36:08.133Z,39.34
2018-07-20T11:36:49.005Z,39.32
2018-07-20T11:37:30.273Z,39.14
2018-07-20T11:38:11.570Z,39.12
2018-07-20T11:38:53.537Z,39.2
2018-07-20T11:39:33.952Z,39.17
2018-07-20T11:40:15.465Z,39.19
2018-07-20T11:41:17.420Z,39.16
2018-07-20T11:41:58.009Z,39.29
2018-07-20T11:42:39.594Z,39.24
2018-07-20T11:43:19.853Z,39.27
2018-07-20T11:44:00.478Z,39.22
2018-07-20T11:44:42.022Z,39.29
2018-07-20T11:45:22.560Z,39.14
2018-07-20T11:46:02.984Z,39.27
2018-07-20T11:46:43.522Z,39.17
2018-07-20T11:47:25.377Z,39.2
2018-07-20T11:48:05.817Z,39.28
2018-07-20T11:48:46.281Z,39.24
2018-07-20T11:49:26.661Z,39.31
2018-07-20T11:50:07.527Z,39.35
2018-07-20T11:50:48.134Z,39.35
2018-07-20T11:55:18.475Z,39.35
2018-07-20T11:55:58.208Z,39.38
2018-07-20T11:56:38.590Z,39.2
2018-07-20T11:57:19.162Z,39.16
2018-07-20T11:57:59.523Z,39.1
2018-07-20T11:58:40.088Z,39.02
2018-07-20T11:59:20.385Z,39.02
2018-07-20T12:00:00.735Z,38.97
2018-07-20T12:00:44.434Z,38.78
2018-07-20T12:12:35.883Z,39.38
2018-07-20T12:13:16.690Z,39.35
2018-07-20T12:13:58.802Z,39.13
2018-07-20T12:14:39.509Z,39.01
2018-07-20T12:15:24.245Z,39.09
2018-07-20T12:16:04.524Z,39.07
2018-07-20T12:16:45.113Z,39.2
2018-07-20T12:17:26.423Z,39.2
2018-07-20T12:18:07.671Z,39.39
2018-07-20T12:18:48.298Z,39.2
2018-07-20T12:19:29.459Z,39.12
2018-07-20T12:20:10.272Z,39.35
2018-07-20T12:20:52.344Z,39.28
2018-07-20T12:21:36.416Z,39.24
2018-07-20T12:22:17.038Z,39.35
2018-07-20T12:23:00.772Z,39.32
2018-07-20T12:26:52.884Z,39.8
2018-07-20T12:27:33.722Z,39.92
2018-07-20T12:28:15.963Z,39.99
2018-07-20T12:28:56.411Z,40.16
2018-07-20T12:29:37.063Z,40.09
2018-07-20T12:30:22.379Z,39.99
2018-07-20T12:31:16.461Z,39.57
2018-07-20T12:31:57.608Z,39.53
2018-07-20T12:32:40.828Z,39.57
2018-07-20T12:33:19.377Z,39.54
2018-07-20T12:34:02.536Z,39.59
2018-07-20T12:34:42.820Z,39.17
2018-07-20T12:35:28.563Z,38.93
2018-07-20T12:36:10.642Z,38.89
2018-07-20T12:36:51.047Z,38.7
2018-07-20T12:37:31.627Z,38.44
2018-07-20T12:38:12.103Z,38.34
2018-07-20T12:38:52.753Z,38.41
2018-07-20T12:39:33.871Z,38.3
2018-07-20T12:43:14.719Z,38.68
2018-07-20T12:44:45.953Z,38.52
2018-07-20T12:45:27.096Z,38.41
2018-07-20T12:46:07.554Z,38.36
2018-07-20T12:46:50.954Z,38.37
2018-07-20T12:47:32.035Z,38.5
2018-07-20T12:48:13.784Z,38.63
2018-07-20T12:48:54.274Z,38.78
2018-07-20T12:49:36.219Z,38.78
2018-07-20T12:50:16.515Z,38.77
2018-07-20T12:50:56.987Z,38.79
2018-07-20T12:51:37.789Z,38.78
2018-07-20T12:52:18.020Z,38.6
2018-07-20T12:52:58.500Z,38.47
2018-07-20T12:53:38.931Z,38.47
2018-07-20T12:54:19.416Z,38.33
2018-07-20T12:54:59.841Z,38.19
2018-07-20T12:55:41.191Z,38.18
2018-07-20T12:56:21.671Z,38.3
2018-07-20T12:57:01.968Z,38.33
2018-07-20T12:57:43.084Z,38.47
2018-07-20T12:58:25.695Z,38.56
2018-07-20T12:59:07.127Z,38.5
2018-07-20T12:59:47.424Z,38.41
2018-07-20T13:00:27.778Z,38.4
2018-07-20T13:01:09.188Z,38.47
2018-07-20T13:01:49.603Z,38.56
2018-07-20T13:02:30.079Z,38.71
2018-07-20T13:03:12.456Z,38.65
2018-07-20T13:03:57.913Z,38.7
2018-07-20T13:04:39.393Z,38.7
2018-07-20T13:05:19.789Z,38.75
2018-07-20T13:06:00.214Z,38.71
2018-07-20T13:06:40.682Z,38.77
2018-07-20T13:07:22.373Z,38.77
2018-07-20T13:08:04.672Z,38.82
2018-07-20T13:08:46.591Z,38.98
2018-07-20T13:09:27.295Z,39.06
2018-07-20T13:10:08.251Z,38.93
2018-07-20T13:10:48.926Z,39.02
2018-07-20T13:11:29.781Z,38.98
2018-07-20T13:12:10.038Z,39
2018-07-20T13:12:50.387Z,39.01
2018-07-20T13:13:31.013Z,39.09
2018-07-20T13:14:12.115Z,39.2
2018-07-20T13:14:53.256Z,39.28
2018-07-20T13:15:33.679Z,39.2
2018-07-20T13:16:14.197Z,39.02
2018-07-20T13:16:54.520Z,38.98
2018-07-20T13:19:45.004Z,39.17
2018-07-20T13:20:25.476Z,39.2
2018-07-20T13:21:06.155Z,39.25
2018-07-20T13:21:46.468Z,39.2
2018-07-20T13:22:26.997Z,39.14
2018-07-20T13:23:07.393Z,39.13
2018-07-20T13:23:47.934Z,39.19
2018-07-20T13:24:28.328Z,39.24
2018-07-20T13:25:08.815Z,39.28
2018-07-20T13:25:49.415Z,39.34
2018-07-20T13:26:30.866Z,39.34
2018-07-20T13:27:11.279Z,39.38
2018-07-20T13:27:51.747Z,39.34
2018-07-20T13:28:32.647Z,39.31
2018-07-20T13:29:12.976Z,39.22
2018-07-20T13:29:53.525Z,39.2
2018-07-20T13:30:34.112Z,39.27
2018-07-20T13:31:14.595Z,39.2
2018-07-20T13:31:55.026Z,39.29
2018-07-20T13:32:35.541Z,39.32
2018-07-20T13:33:15.913Z,39.29
2018-07-20T13:33:56.353Z,39.31
2018-07-20T13:34:36.849Z,39.25
2018-07-20T13:35:17.495Z,39.31
2018-07-20T13:35:58.095Z,39.38
2018-07-20T13:36:38.538Z,39.54
2018-07-20T13:37:19.130Z,39.36
2018-07-20T13:37:59.549Z,39.34
2018-07-20T13:38:39.944Z,39.34
2018-07-20T13:39:20.593Z,39.31
2018-07-20T13:40:02.540Z,39.36
2018-07-20T13:40:43.063Z,39.29
2018-07-20T13:41:23.419Z,39.31
2018-07-20T13:42:03.829Z,39.28
2018-07-20T13:42:44.328Z,39.31
2018-07-20T13:43:25.717Z,39.32
2018-07-20T13:44:07.414Z,39.28
2018-07-20T13:44:47.857Z,39.31
2018-07-20T13:45:28.364Z,39.39
2018-07-20T13:46:09.632Z,39.41
2018-07-20T13:46:53.573Z,39.29
2018-07-20T13:47:33.927Z,39.28
2018-07-20T13:48:14.356Z,39.22
2018-07-20T13:48:54.984Z,39.32
2018-07-20T13:49:35.309Z,39.24
2018-07-20T13:50:15.742Z,39.12
2018-07-20T13:52:03.328Z,39.28
2018-07-20T13:52:46.591Z,39.17
2018-07-20T13:53:28.713Z,39.29
2018-07-20T13:54:09.320Z,39.34
2018-07-20T13:54:52.065Z,39.32
2018-07-20T13:55:32.393Z,39.31
2018-07-20T13:56:12.691Z,39.32
2018-07-20T13:56:53.272Z,39.1
2018-07-20T13:57:33.537Z,39.27
2018-07-20T13:59:31.721Z,38.97
2018-07-20T14:00:11.807Z,38.78
2018-07-20T14:00:52.445Z,38.7
2018-07-20T14:01:33.185Z,38.52
2018-07-20T14:02:13.760Z,38.3
2018-07-20T14:02:54.651Z,37.97
2018-07-20T14:03:35.719Z,37.99
2018-07-20T14:04:17.077Z,37.96
2018-07-20T14:04:57.132Z,37.88
2018-07-20T14:05:37.424Z,37.91
2018-07-20T14:06:18.040Z,37.93
2018-07-20T14:06:58.785Z,37.93
2018-07-20T14:07:39.507Z,37.97
2018-07-20T14:08:19.918Z,38.06
2018-07-20T14:09:00.439Z,38.04
2018-07-20T14:09:40.998Z,38.04
2018-07-20T14:10:21.640Z,38.06
2018-07-20T14:11:02.013Z,38.25
2018-07-20T14:11:43.668Z,38.34
2018-07-20T14:12:23.000Z,38.44
2018-07-20T14:13:03.597Z,38.45
2018-07-20T14:13:44.072Z,38.38
2018-07-20T14:14:24.481Z,38.28
2018-07-20T14:15:05.074Z,38.28
2018-07-20T14:15:45.469Z,38.36
2018-07-20T14:16:25.869Z,38.31
2018-07-20T14:17:06.352Z,38.28
2018-07-20T14:17:46.713Z,38.26
2018-07-20T14:18:27.296Z,38.26
2018-07-20T14:19:07.849Z,38.36
2018-07-20T14:19:48.090Z,38.3
2018-07-20T14:20:29.623Z,38.31
2018-07-20T14:21:09.960Z,38.37
2018-07-20T14:21:52.668Z,38.43
2018-07-20T14:22:33.144Z,38.38
2018-07-20T14:23:13.602Z,38.44
2018-07-20T14:23:54.017Z,38.5
2018-07-20T14:24:34.531Z,38.53
2018-07-20T14:25:15.572Z,38.62
2018-07-20T14:25:55.988Z,38.62
2018-07-20T14:26:39.859Z,38.67
2018-07-20T14:27:20.226Z,38.75
2018-07-20T14:28:00.725Z,38.78
2018-07-20T14:28:41.736Z,38.75
2018-07-20T14:29:22.265Z,38.72
2018-07-20T14:30:02.755Z,38.6
2018-07-20T14:30:43.252Z,38.7
2018-07-20T14:31:26.527Z,38.62
2018-07-20T14:32:06.978Z,38.62
2018-07-20T14:32:49.204Z,38.52
2018-07-20T14:33:29.988Z,38.43
2018-07-20T14:34:11.313Z,38.31
2018-07-20T14:34:51.842Z,38.09
2018-07-20T14:35:33.042Z,37.88
2018-07-20T14:37:20.830Z,37.72
2018-07-20T14:38:01.383Z,37.81
2018-07-20T14:38:41.800Z,37.84
2018-07-20T14:39:22.209Z,37.88
2018-07-20T14:46:00.648Z,38.09
2018-07-20T14:46:41.174Z,38.06
2018-07-20T14:47:21.467Z,38.04
2018-07-20T14:48:02.406Z,38.03
2018-07-20T14:48:43.191Z,37.99
2018-07-20T14:49:25.319Z,37.95
2018-07-20T14:50:05.666Z,37.91
2018-07-20T14:50:46.395Z,37.93
2018-07-20T14:51:26.642Z,37.91
2018-07-20T14:52:07.018Z,38
2018-07-20T14:52:47.812Z,37.9
2018-07-20T14:53:27.966Z,37.85
2018-07-20T14:54:08.717Z,37.77
2018-07-20T14:54:48.957Z,37.77
2018-07-20T14:55:29.323Z,37.75
2018-07-20T14:56:09.993Z,37.82
2018-07-20T14:56:50.170Z,37.68
2018-07-20T14:57:30.577Z,37.62
2018-07-20T14:58:11.195Z,37.6
2018-07-20T14:58:51.790Z,37.43
2018-07-20T14:59:32.222Z,37.39
2018-07-20T15:00:12.633Z,37.39
2018-07-20T15:00:53.166Z,37.13
2018-07-20T15:01:33.646Z,37.16
2018-07-20T15:02:14.034Z,37.18
2018-07-20T15:02:54.453Z,37.16
2018-07-20T15:03:35.182Z,37.11
2018-07-20T15:04:15.601Z,37.13
2018-07-20T15:04:56.163Z,37.13
2018-07-20T15:05:36.520Z,37.02
2018-07-20T15:06:16.899Z,37.09
2018-07-20T15:06:57.768Z,37.02
2018-07-20T15:07:38.055Z,37.05
2018-07-20T15:08:18.492Z,37.06
2018-07-20T15:08:58.990Z,37.05
2018-07-20T15:09:39.772Z,37.06
2018-07-20T15:10:20.217Z,37.06
2018-07-20T15:11:01.389Z,36.94
2018-07-20T15:11:41.962Z,37.04
2018-07-20T15:12:22.440Z,37.04
2018-07-20T15:13:03.060Z,37.06
2018-07-20T15:13:43.750Z,36.93
2018-07-20T15:14:23.881Z,36.91
2018-07-20T15:15:04.428Z,36.89
2018-07-20T15:15:44.860Z,36.78
2018-07-20T15:16:25.534Z,36.84
2018-07-20T15:17:06.201Z,36.78
2018-07-20T15:17:48.305Z,36.78
2018-07-20T15:18:29.046Z,36.74
2018-07-20T15:19:10.050Z,36.67
2018-07-20T15:19:50.214Z,36.65
2018-07-20T15:20:30.582Z,36.57
2018-07-20T15:21:11.377Z,36.56
2018-07-20T15:21:51.919Z,36.56
2018-07-20T15:22:32.660Z,36.56
2018-07-20T15:24:24.651Z,36.48
2018-07-20T15:27:46.906Z,36.19
2018-07-20T15:28:27.400Z,36.18
2018-07-20T15:29:07.814Z,36.16
2018-07-20T15:29:49.032Z,36.16
2018-07-20T15:30:29.785Z,36.13
2018-07-20T15:32:58.873Z,36.02
2018-07-20T15:33:39.614Z,36.02
2018-07-20T15:34:20.963Z,36.03
2018-07-20T15:35:58.172Z,36.06
2018-07-20T15:36:42.237Z,35.89
2018-07-20T15:37:22.669Z,35.91
2018-07-20T15:38:03.001Z,35.83
2018-07-20T15:38:43.454Z,35.83
2018-07-20T15:39:23.954Z,35.66
2018-07-20T15:40:04.448Z,35.76
2018-07-20T15:42:19.142Z,35.71
2018-07-20T15:42:59.348Z,35.65
2018-07-20T15:43:40.208Z,35.62
2018-07-20T15:44:20.426Z,35.59
2018-07-20T15:45:00.765Z,35.59
2018-07-20T15:45:51.816Z,35.5
2018-07-20T15:46:21.870Z,35.55
2018-07-20T15:47:02.409Z,35.55
2018-07-20T15:47:43.366Z,35.36
2018-07-20T15:48:23.773Z,35.29
2018-07-20T15:49:04.419Z,35.27
2018-07-20T15:49:44.840Z,35.25
2018-07-20T15:50:25.265Z,35.25
2018-07-20T15:51:05.733Z,35.27
2018-07-20T15:53:37.361Z,35.2
2018-07-20T15:53:48.073Z,35.32
2018-07-20T15:54:29.094Z,35.25
2018-07-20T15:55:14.324Z,35.29
2018-07-20T15:55:57.838Z,35.34
2018-07-20T15:56:39.438Z,35.22
2018-07-20T15:57:21.176Z,35.24
2018-07-20T15:58:01.586Z,35.27
2018-07-20T15:58:41.874Z,35.27
2018-07-20T16:00:06.936Z,35.31
2018-07-20T16:00:47.319Z,35.22
2018-07-20T16:01:28.203Z,35.22
2018-07-20T16:02:09.081Z,35.25
2018-07-20T16:05:57.003Z,35.18
2018-07-20T16:06:37.796Z,35.17
2018-07-20T16:47:41.444Z,30.7
2018-07-20T16:48:22.141Z,30.37
2018-07-20T16:49:02.496Z,30.22
2018-07-20T16:49:42.969Z,30.18
2018-07-20T16:50:23.407Z,30.11
2018-07-20T16:51:03.842Z,29.89
2018-07-20T16:51:44.536Z,29.84
2018-07-20T16:52:24.836Z,29.79
2018-07-20T16:53:06.013Z,29.71
2018-07-20T16:53:46.444Z,29.73
2018-07-20T16:54:27.091Z,29.69
2018-07-20T16:55:07.522Z,29.58
2018-07-20T16:55:48.080Z,29.57
2018-07-20T16:56:29.336Z,29.57
2018-07-20T16:57:11.000Z,29.54
2018-07-20T16:57:52.156Z,29.47
2018-07-20T16:58:32.521Z,29.42
2018-07-20T16:59:13.249Z,29.37
2018-07-20T16:59:53.625Z,29.12
2018-07-20T17:00:34.283Z,29.03
2018-07-20T17:02:46.913Z,28.82
2018-07-20T17:03:27.503Z,28.69
2018-07-20T17:04:07.938Z,28.76
2018-07-20T17:04:48.506Z,28.52
2018-07-20T17:05:29.610Z,28.55
2018-07-20T17:06:10.623Z,28.51
2018-07-20T17:06:51.005Z,28.62
2018-07-20T17:07:31.784Z,28.54
2018-07-20T17:08:12.165Z,28.62
2018-07-20T17:08:53.739Z,28.57
2018-07-20T17:09:34.333Z,28.54
2018-07-20T17:10:14.757Z,28.61
2018-07-20T17:10:55.210Z,28.58
2018-07-20T17:11:35.935Z,28.54
2018-07-20T17:12:16.308Z,28.58
2018-07-20T17:15:08.728Z,28.5
2018-07-20T17:15:49.931Z,28.46
2018-07-20T17:18:50.093Z,28.46
2018-07-20T17:19:32.229Z,28.45
2018-07-20T17:20:12.792Z,28.43
2018-07-20T17:20:53.357Z,28.4
2018-07-20T17:21:33.778Z,28.36
2018-07-20T17:22:14.172Z,28.39
2018-07-20T17:22:54.601Z,28.4
2018-07-20T17:23:37.250Z,28.36
2018-07-20T17:24:17.658Z,28.21
2018-07-20T17:24:58.105Z,28.24
2018-07-20T17:25:38.593Z,28.15
2018-07-20T17:28:04.634Z,28.24
2018-07-20T17:28:45.263Z,28.15
2018-07-20T17:29:28.343Z,28.08
2018-07-20T17:30:09.913Z,28.17
2018-07-20T17:30:50.410Z,28.17
2018-07-20T17:32:48.490Z,28.2
2018-07-20T17:33:30.050Z,28.24
2018-07-20T17:34:11.794Z,28.21
2018-07-20T17:34:51.096Z,28.18
2018-07-20T17:36:41.437Z,28.23
2018-07-20T17:37:26.760Z,28.2
2018-07-20T17:38:05.892Z,28.27
2018-07-20T17:38:46.425Z,28.27
2018-07-20T17:39:27.125Z,28.25
2018-07-20T17:40:08.749Z,28.17
2018-07-20T17:40:50.637Z,28.15
2018-07-20T17:41:31.267Z,28.15
2018-07-20T17:42:13.134Z,28.21
2018-07-20T17:42:53.551Z,28.14
2018-07-20T17:43:33.988Z,28.18
2018-07-20T17:45:35.308Z,28.2
2018-07-20T17:46:13.533Z,28.18